Time;durP1;ratioP1;P1;durP2;ratioP2;P2;SDS_P1;SDS_P2;PMS_P1;PMS_P2;Temp;Humidity;BMP_temperature;BMP_pressure;BME280_temperature;BME280_humidity;BME280_pressure;Samples;Min_cycle;Max_cycle;Signal;HPM_P1;HPM_P2
2021/06/05 00:00:46;;;;;;;;;;;16.80;76.90;;;;;;5120680;27;87420;-47
2021/06/05 00:03:12;;;;;;;;;;;16.80;77.00;;;;;;5119658;27;87158;-47
2021/06/05 00:05:46;;;;;;;;;;;16.80;77.00;;;;;;5118139;27;87362;-48
2021/06/05 00:08:11;;;;;;;;;;;16.80;77.00;;;;;;5122200;27;90210;-49
2021/06/05 00:10:39;;;;;;;;;;;16.80;76.90;;;;;;5121752;27;88719;-48
2021/06/05 00:13:06;;;;;;;;;;;16.70;76.80;;;;;;5121503;27;87931;-47
2021/06/05 00:15:34;;;;;;;;;;;16.70;76.80;;;;;;5121237;27;86395;-48
2021/06/05 00:18:00;;;;;;;;;;;16.70;76.90;;;;;;5118450;27;87179;-48
2021/06/05 00:20:29;;;;;;;;;;;16.70;76.80;;;;;;5122297;27;87145;-47
2021/06/05 00:22:55;;;;;;;;;;;16.70;76.80;;;;;;5121520;27;89467;-47
2021/06/05 00:25:21;;;;;;;;;;;16.70;76.80;;;;;;5124931;27;88597;-48
2021/06/05 00:27:47;;;;;;;;;;;16.60;76.70;;;;;;5122892;27;88330;-47
2021/06/05 00:30:12;;;;;;;;;;;16.70;76.80;;;;;;5122161;27;87193;-48
2021/06/05 00:32:38;;;;;;;;;;;16.60;76.70;;;;;;5123167;27;88138;-48
2021/06/05 00:35:04;;;;;;;;;;;16.60;76.70;;;;;;5123851;27;87683;-48
2021/06/05 00:37:29;;;;;;;;;;;16.60;76.70;;;;;;5124553;27;87171;-48
2021/06/05 00:39:55;;;;;;;;;;;16.60;76.80;;;;;;5126390;27;88140;-48
2021/06/05 00:42:20;;;;;;;;;;;16.60;76.60;;;;;;5126161;27;88765;-48
2021/06/05 00:44:46;;;;;;;;;;;16.60;76.70;;;;;;5121545;27;88065;-49
2021/06/05 00:47:11;;;;;;;;;;;16.50;76.70;;;;;;5121744;27;89256;-47
2021/06/05 00:49:37;;;;;;;;;;;16.60;76.80;;;;;;5124137;27;87142;-48
2021/06/05 00:52:04;;;;;;;;;;;16.50;76.60;;;;;;5125275;27;89160;-48
2021/06/05 00:54:29;;;;;;;;;;;16.50;76.70;;;;;;5123791;27;89330;-47
2021/06/05 00:56:56;;;;;;;;;;;16.50;76.60;;;;;;5124744;27;87201;-47
2021/06/05 00:59:22;;;;;;;;;;;16.50;76.60;;;;;;5124067;27;89079;-48
2021/06/05 01:01:48;;;;;;;;;;;16.50;76.70;;;;;;5123656;27;89186;-48
2021/06/05 01:04:14;;;;;;;;;;;16.50;76.70;;;;;;5128863;27;86387;-49
2021/06/05 01:06:39;;;;;;;;;;;16.50;76.70;;;;;;5123841;27;87947;-47
2021/06/05 01:09:23;;;;;;;;;;;16.50;76.70;;;;;;5121227;27;87195;-48
2021/06/05 01:11:49;;;;;;;;;;;16.40;76.70;;;;;;5124005;27;88078;-47
2021/06/05 01:14:26;;;;;;;;;;;16.40;76.60;;;;;;5125310;27;88280;-48
2021/06/05 01:16:55;;;;;;;;;;;16.40;76.70;;;;;;5124220;27;87147;-48
2021/06/05 01:19:26;;;;;;;;;;;16.40;76.60;;;;;;5123750;27;88024;-48
2021/06/05 01:21:57;;;;;;;;;;;16.40;76.60;;;;;;5124568;27;87367;-48
2021/06/05 01:24:26;;;;;;;;;;;16.40;76.60;;;;;;5123308;27;87183;-48
2021/06/05 01:26:53;;;;;;;;;;;16.40;76.60;;;;;;5123304;27;89594;-48
2021/06/05 01:29:20;;;;;;;;;;;16.30;76.50;;;;;;5124522;27;88065;-47
2021/06/05 01:31:50;;;;;;;;;;;16.40;76.70;;;;;;5125317;27;88964;-48
2021/06/05 01:34:15;;;;;;;;;;;16.30;76.50;;;;;;5120544;27;88067;-48
2021/06/05 01:36:43;;;;;;;;;;;16.30;76.60;;;;;;5120727;27;88114;-47
2021/06/05 01:39:11;;;;;;;;;;;16.30;76.50;;;;;;5122761;27;88876;-48
2021/06/05 01:41:38;;;;;;;;;;;16.30;76.50;;;;;;5124155;27;88102;-48
2021/06/05 01:44:04;;;;;;;;;;;16.30;76.50;;;;;;5123462;27;87195;-49
2021/06/05 01:46:31;;;;;;;;;;;16.20;76.40;;;;;;5126865;27;87158;-48
2021/06/05 01:48:57;;;;;;;;;;;16.20;76.50;;;;;;5121062;27;87119;-47
2021/06/05 01:51:23;;;;;;;;;;;16.20;76.40;;;;;;5121897;27;87256;-49
2021/06/05 01:54:01;;;;;;;;;;;16.20;76.40;;;;;;5122827;27;86979;-48
2021/06/05 01:56:29;;;;;;;;;;;16.20;76.50;;;;;;5120533;27;87183;-48
2021/06/05 01:58:55;;;;;;;;;;;16.20;76.50;;;;;;5124627;27;87148;-47
2021/06/05 02:01:20;;;;;;;;;;;16.20;76.50;;;;;;5123497;27;88540;-48
2021/06/05 02:03:46;;;;;;;;;;;16.10;76.30;;;;;;5124813;27;87189;-48
2021/06/05 02:06:12;;;;;;;;;;;16.10;76.40;;;;;;5124623;27;87121;-48
2021/06/05 02:08:37;;;;;;;;;;;16.10;76.40;;;;;;5125492;27;89719;-49
2021/06/05 02:11:11;;;;;;;;;;;16.10;76.30;;;;;;5119885;27;88845;-48
2021/06/05 02:13:42;;;;;;;;;;;16.10;76.40;;;;;;5121719;27;88215;-49
2021/06/05 02:16:26;;;;;;;;;;;16.10;76.40;;;;;;5121854;27;87293;-48
2021/06/05 02:18:54;;;;;;;;;;;16.10;76.30;;;;;;5125322;27;87574;-47
2021/06/05 02:21:21;;;;;;;;;;;16.00;76.30;;;;;;5122864;27;88738;-48
2021/06/05 02:23:52;;;;;;;;;;;16.00;76.30;;;;;;5121570;27;88133;-48
2021/06/05 02:26:18;;;;;;;;;;;16.00;76.30;;;;;;5120796;27;88038;-50
2021/06/05 02:28:45;;;;;;;;;;;16.00;76.90;;;;;;5119835;27;89130;-49
2021/06/05 02:31:12;;;;;;;;;;;16.00;76.30;;;;;;5123009;27;87119;-48
2021/06/05 02:33:38;;;;;;;;;;;15.90;76.30;;;;;;5119866;27;89045;-48
2021/06/05 02:36:05;;;;;;;;;;;16.00;76.30;;;;;;5120966;27;88640;-48
2021/06/05 02:38:31;;;;;;;;;;;15.90;76.20;;;;;;5124286;27;88358;-48
2021/06/05 02:40:57;;;;;;;;;;;15.90;76.20;;;;;;5121902;27;87875;-48
2021/06/05 02:43:25;;;;;;;;;;;15.90;76.20;;;;;;5121272;27;87561;-48
2021/06/05 02:45:51;;;;;;;;;;;15.90;76.30;;;;;;5103222;27;87350;-47
2021/06/05 02:48:17;;;;;;;;;;;15.90;76.40;;;;;;5123592;27;87590;-49
2021/06/05 02:50:44;;;;;;;;;;;15.90;76.30;;;;;;5122722;27;88757;-49
2021/06/05 02:53:10;;;;;;;;;;;15.90;76.20;;;;;;5126459;27;88409;-48
2021/06/05 02:55:36;;;;;;;;;;;15.80;76.20;;;;;;5123836;27;87166;-47
2021/06/05 02:58:03;;;;;;;;;;;15.80;76.20;;;;;;5123780;27;89072;-47
2021/06/05 03:00:34;;;;;;;;;;;15.80;76.30;;;;;;5122943;27;88079;-48
2021/06/05 03:03:00;;;;;;;;;;;15.80;76.20;;;;;;5121920;27;87113;-47
2021/06/05 03:05:26;;;;;;;;;;;15.80;76.20;;;;;;5122110;27;87932;-48
2021/06/05 03:07:52;;;;;;;;;;;15.80;76.30;;;;;;5121447;27;88653;-48
2021/06/05 03:10:19;;;;;;;;;;;15.70;76.10;;;;;;5121637;27;87161;-48
2021/06/05 03:12:45;;;;;;;;;;;15.70;76.10;;;;;;5121156;27;88876;-47
2021/06/05 03:15:11;;;;;;;;;;;15.70;76.10;;;;;;5124433;27;89093;-47
2021/06/05 03:17:36;;;;;;;;;;;15.70;76.20;;;;;;5122120;27;90157;-48
2021/06/05 03:20:05;;;;;;;;;;;15.70;76.10;;;;;;5121129;27;88130;-48
2021/06/05 03:22:30;;;;;;;;;;;15.70;76.20;;;;;;5118620;27;87150;-48
2021/06/05 03:24:56;;;;;;;;;;;15.70;76.20;;;;;;5119689;27;88863;-48
2021/06/05 03:27:21;;;;;;;;;;;15.70;76.10;;;;;;5120909;27;89468;-48
2021/06/05 03:29:47;;;;;;;;;;;15.60;76.10;;;;;;5122359;27;87113;-47
2021/06/05 03:32:13;;;;;;;;;;;15.60;76.10;;;;;;5123009;27;86398;-48
2021/06/05 03:34:39;;;;;;;;;;;15.60;76.20;;;;;;5122268;27;87591;-48
2021/06/05 03:37:08;;;;;;;;;;;15.60;76.10;;;;;;5126029;27;88706;-48
2021/06/05 03:39:34;;;;;;;;;;;15.60;76.10;;;;;;5118271;27;90140;-48
2021/06/05 03:42:00;;;;;;;;;;;15.60;76.10;;;;;;5119947;27;87125;-48
2021/06/05 03:44:25;;;;;;;;;;;15.60;76.20;;;;;;5121377;27;87169;-47
2021/06/05 03:46:51;;;;;;;;;;;15.50;76.00;;;;;;5122102;27;87591;-48
2021/06/05 03:49:16;;;;;;;;;;;15.60;76.10;;;;;;5122480;27;87831;-48
2021/06/05 03:51:42;;;;;;;;;;;15.50;76.10;;;;;;5119417;27;88965;-48
2021/06/05 03:54:07;;;;;;;;;;;15.50;75.90;;;;;;5118738;27;87570;-48
2021/06/05 03:56:33;;;;;;;;;;;15.50;76.00;;;;;;5122569;27;86465;-48
2021/06/05 03:59:00;;;;;;;;;;;15.50;76.00;;;;;;5117823;27;87721;-48
2021/06/05 04:01:26;;;;;;;;;;;15.50;76.10;;;;;;5119521;27;87144;-49
2021/06/05 04:03:52;;;;;;;;;;;15.50;76.00;;;;;;5119183;27;88732;-49
2021/06/05 04:06:21;;;;;;;;;;;15.50;76.10;;;;;;5119855;27;89757;-48
2021/06/05 04:08:47;;;;;;;;;;;15.40;76.00;;;;;;5120310;27;87131;-48
2021/06/05 04:11:13;;;;;;;;;;;15.40;76.00;;;;;;5119676;27;88028;-48
2021/06/05 04:13:38;;;;;;;;;;;15.40;76.00;;;;;;5117671;27;88506;-47
2021/06/05 04:16:04;;;;;;;;;;;15.40;76.00;;;;;;5118367;27;87209;-48
2021/06/05 04:18:31;;;;;;;;;;;15.40;76.00;;;;;;5121941;27;89631;-48
2021/06/05 04:20:57;;;;;;;;;;;15.40;76.00;;;;;;5118960;27;86421;-47
2021/06/05 04:23:23;;;;;;;;;;;15.40;76.00;;;;;;5118223;27;88309;-47
2021/06/05 04:25:49;;;;;;;;;;;15.40;76.00;;;;;;5117045;27;88547;-48
2021/06/05 04:28:17;;;;;;;;;;;15.40;76.60;;;;;;5117176;27;89289;-48
2021/06/05 04:30:43;;;;;;;;;;;15.40;76.00;;;;;;5122944;27;88355;-48
2021/06/05 04:33:09;;;;;;;;;;;15.40;76.00;;;;;;5121236;27;88503;-47
2021/06/05 04:35:35;;;;;;;;;;;15.30;75.90;;;;;;5121382;27;87828;-48
2021/06/05 04:38:00;;;;;;;;;;;15.30;75.90;;;;;;5119750;27;88547;-48
2021/06/05 04:40:27;;;;;;;;;;;15.40;76.00;;;;;;5125153;27;88556;-48
2021/06/05 04:42:52;;;;;;;;;;;15.30;76.00;;;;;;5120833;27;88808;-48
2021/06/05 04:45:19;;;;;;;;;;;15.30;75.90;;;;;;5120346;27;87277;-48
2021/06/05 04:47:45;;;;;;;;;;;15.30;75.90;;;;;;5118146;27;87213;-48
2021/06/05 04:50:12;;;;;;;;;;;15.30;76.00;;;;;;5119082;27;87152;-47
2021/06/05 04:52:37;;;;;;;;;;;15.30;76.00;;;;;;5117570;27;90656;-48
2021/06/05 04:55:04;;;;;;;;;;;15.30;76.00;;;;;;5119804;27;87162;-47
2021/06/05 04:57:29;;;;;;;;;;;15.30;76.10;;;;;;5119228;27;90487;-48
2021/06/05 04:59:55;;;;;;;;;;;15.30;76.10;;;;;;5120298;27;88747;-49
2021/06/05 05:02:21;;;;;;;;;;;15.30;76.80;;;;;;5124310;27;87189;-49
2021/06/05 05:04:46;;;;;;;;;;;15.30;76.20;;;;;;5121166;27;89708;-47
2021/06/05 05:07:12;;;;;;;;;;;15.30;76.20;;;;;;5120752;27;88562;-47
2021/06/05 05:09:38;;;;;;;;;;;15.30;76.20;;;;;;5120387;27;87741;-47
2021/06/05 05:12:05;;;;;;;;;;;15.30;76.30;;;;;;5120931;27;88114;-48
2021/06/05 05:14:30;;;;;;;;;;;15.30;76.30;;;;;;5121938;27;88756;-48
2021/06/05 05:16:56;;;;;;;;;;;15.30;76.40;;;;;;5120717;27;88162;-47
2021/06/05 05:19:22;;;;;;;;;;;15.30;76.40;;;;;;5122109;27;89806;-48
2021/06/05 05:21:47;;;;;;;;;;;15.30;76.50;;;;;;5122611;27;87147;-48
2021/06/05 05:24:13;;;;;;;;;;;15.30;76.40;;;;;;5124146;27;87927;-48
2021/06/05 05:26:38;;;;;;;;;;;15.30;76.50;;;;;;5121141;27;87122;-49
2021/06/05 05:29:04;;;;;;;;;;;15.30;76.50;;;;;;5121817;27;89165;-48
2021/06/05 05:31:29;;;;;;;;;;;15.30;76.50;;;;;;5122693;27;87851;-48
2021/06/05 05:33:56;;;;;;;;;;;15.30;76.60;;;;;;5124263;27;86399;-48
2021/06/05 05:36:26;;;;;;;;;;;15.30;76.60;;;;;;5124314;27;87149;-48
2021/06/05 05:38:52;;;;;;;;;;;15.30;76.60;;;;;;5125079;27;88088;-48
2021/06/05 05:41:19;;;;;;;;;;;15.30;76.60;;;;;;5122796;27;88934;-47
2021/06/05 05:43:45;;;;;;;;;;;15.30;76.70;;;;;;5127106;27;87971;-48
2021/06/05 05:46:10;;;;;;;;;;;15.30;76.70;;;;;;5124680;27;87144;-48
2021/06/05 05:48:37;;;;;;;;;;;15.30;76.70;;;;;;5121736;27;88846;-47
2021/06/05 05:51:04;;;;;;;;;;;15.30;76.70;;;;;;5121631;27;89030;-48
2021/06/05 05:53:30;;;;;;;;;;;15.30;76.70;;;;;;5124727;27;87239;-47
2021/06/05 05:55:57;;;;;;;;;;;15.30;76.80;;;;;;5124529;27;88702;-49
2021/06/05 05:58:23;;;;;;;;;;;15.30;76.80;;;;;;5125075;27;88863;-49
2021/06/05 06:00:50;;;;;;;;;;;15.30;76.80;;;;;;5123757;27;88517;-48
2021/06/05 06:03:16;;;;;;;;;;;15.40;76.90;;;;;;5124171;27;88584;-47
2021/06/05 06:05:42;;;;;;;;;;;15.40;76.80;;;;;;5126013;27;88450;-47
2021/06/05 06:08:08;;;;;;;;;;;15.30;76.80;;;;;;5124909;27;88295;-47
2021/06/05 06:10:34;;;;;;;;;;;15.30;76.80;;;;;;5124560;27;90569;-47
2021/06/05 06:13:00;;;;;;;;;;;15.40;76.90;;;;;;5122519;27;87752;-48
2021/06/05 06:15:27;;;;;;;;;;;15.30;76.90;;;;;;5119837;27;88695;-48
2021/06/05 06:17:53;;;;;;;;;;;15.30;76.90;;;;;;5124206;27;89548;-47
2021/06/05 06:20:21;;;;;;;;;;;15.40;77.00;;;;;;5124154;27;87731;-47
2021/06/05 06:22:46;;;;;;;;;;;15.40;77.00;;;;;;5123029;27;87160;-48
2021/06/05 06:25:14;;;;;;;;;;;15.40;77.10;;;;;;5123519;27;87536;-49
2021/06/05 06:27:40;;;;;;;;;;;15.30;77.00;;;;;;5125546;27;87107;-47
2021/06/05 06:30:06;;;;;;;;;;;15.30;77.00;;;;;;5120489;27;89061;-47
2021/06/05 06:32:31;;;;;;;;;;;15.40;77.10;;;;;;5121048;27;87147;-47
2021/06/05 06:34:57;;;;;;;;;;;15.40;77.10;;;;;;5122225;27;88827;-48
2021/06/05 06:37:22;;;;;;;;;;;15.40;77.10;;;;;;5123268;27;88069;-48
2021/06/05 06:39:48;;;;;;;;;;;15.40;77.10;;;;;;5123613;27;87834;-48
2021/06/05 06:42:13;;;;;;;;;;;15.40;77.20;;;;;;5119950;27;88388;-48
2021/06/05 06:44:39;;;;;;;;;;;15.40;77.30;;;;;;5119948;27;89366;-47
2021/06/05 06:47:06;;;;;;;;;;;15.40;77.30;;;;;;5122121;27;86417;-47
2021/06/05 06:49:32;;;;;;;;;;;15.40;77.30;;;;;;5123242;27;87325;-47
2021/06/05 06:51:58;;;;;;;;;;;15.40;77.20;;;;;;5120519;27;87173;-47
2021/06/05 06:54:23;;;;;;;;;;;15.40;77.30;;;;;;5120206;27;88098;-48
2021/06/05 06:56:49;;;;;;;;;;;15.40;77.30;;;;;;5120286;27;88250;-48
2021/06/05 06:59:15;;;;;;;;;;;15.40;77.30;;;;;;5121720;27;87195;-47
2021/06/05 07:01:41;;;;;;;;;;;15.40;77.30;;;;;;5122543;27;89423;-47
2021/06/05 07:04:06;;;;;;;;;;;15.40;77.30;;;;;;5122160;27;88279;-48
2021/06/05 07:06:33;;;;;;;;;;;15.40;77.30;;;;;;5122325;27;87222;-47
2021/06/05 07:08:58;;;;;;;;;;;15.50;77.40;;;;;;5121765;27;87335;-47
2021/06/05 07:11:29;;;;;;;;;;;15.50;77.40;;;;;;5126119;27;87449;-48
2021/06/05 07:13:55;;;;;;;;;;;15.50;77.40;;;;;;5123619;27;88658;-47
2021/06/05 07:16:21;;;;;;;;;;;15.50;77.40;;;;;;5122268;27;88198;-48
2021/06/05 07:18:48;;;;;;;;;;;15.50;77.40;;;;;;5122201;27;88088;-48
2021/06/05 07:21:13;;;;;;;;;;;15.50;77.40;;;;;;5122088;27;88488;-47
2021/06/05 07:23:40;;;;;;;;;;;15.50;77.40;;;;;;5122224;27;89161;-48
2021/06/05 07:26:08;;;;;;;;;;;15.50;77.40;;;;;;5122810;27;87109;-47
2021/06/05 07:28:35;;;;;;;;;;;15.50;77.50;;;;;;5119514;27;87241;-48
2021/06/05 07:31:02;;;;;;;;;;;15.50;77.50;;;;;;5118531;27;88088;-48
2021/06/05 07:33:28;;;;;;;;;;;15.50;77.50;;;;;;5125657;27;88768;-47
2021/06/05 07:35:54;;;;;;;;;;;15.50;77.50;;;;;;5123100;27;87827;-47
2021/06/05 07:38:20;;;;;;;;;;;15.60;77.60;;;;;;5103789;27;88409;-47
2021/06/05 07:40:46;;;;;;;;;;;15.60;77.60;;;;;;5123147;27;87095;-48
2021/06/05 07:43:12;;;;;;;;;;;15.60;77.70;;;;;;5119921;27;90609;-47
2021/06/05 07:45:38;;;;;;;;;;;15.60;77.60;;;;;;5119648;27;87092;-47
2021/06/05 07:48:03;;;;;;;;;;;15.60;77.70;;;;;;5120054;27;89414;-47
2021/06/05 07:50:29;;;;;;;;;;;15.60;77.70;;;;;;5120220;27;87777;-48
2021/06/05 07:52:55;;;;;;;;;;;15.60;77.60;;;;;;5123884;27;87192;-47
2021/06/05 07:55:20;;;;;;;;;;;15.60;77.70;;;;;;5121671;27;88060;-48
2021/06/05 07:57:46;;;;;;;;;;;15.60;77.70;;;;;;5122170;27;87155;-48
2021/06/05 08:00:13;;;;;;;;;;;15.70;77.70;;;;;;5123778;27;87505;-47
2021/06/05 08:02:39;;;;;;;;;;;15.70;77.70;;;;;;5121022;27;88299;-48
2021/06/05 08:05:05;;;;;;;;;;;15.70;77.70;;;;;;5122278;27;87130;-47
2021/06/05 08:07:31;;;;;;;;;;;15.70;77.80;;;;;;5120737;27;88066;-47
2021/06/05 08:09:56;;;;;;;;;;;15.70;77.80;;;;;;5121254;27;87110;-47
2021/06/05 08:12:22;;;;;;;;;;;15.70;77.80;;;;;;5122734;27;87154;-49
2021/06/05 08:14:47;;;;;;;;;;;15.70;77.90;;;;;;5123240;27;88796;-47
2021/06/05 08:17:13;;;;;;;;;;;15.60;77.80;;;;;;5118151;27;87180;-47
2021/06/05 08:19:40;;;;;;;;;;;15.70;78.00;;;;;;5119414;27;87121;-48
2021/06/05 08:22:06;;;;;;;;;;;15.70;78.10;;;;;;5117151;27;88259;-47
2021/06/05 08:24:31;;;;;;;;;;;15.70;78.10;;;;;;5118668;27;87348;-48
2021/06/05 08:26:57;;;;;;;;;;;15.70;78.10;;;;;;5119038;27;87268;-48
2021/06/05 08:29:22;;;;;;;;;;;15.70;78.70;;;;;;5119935;27;87610;-47
2021/06/05 08:31:49;;;;;;;;;;;15.70;78.20;;;;;;5120861;27;88139;-47
2021/06/05 08:34:16;;;;;;;;;;;15.70;78.10;;;;;;5120737;27;90427;-48
2021/06/05 08:36:42;;;;;;;;;;;15.70;78.30;;;;;;5123068;27;89003;-48
2021/06/05 08:39:08;;;;;;;;;;;15.70;78.20;;;;;;5120649;27;88649;-47
2021/06/05 08:41:39;;;;;;;;;;;15.70;78.10;;;;;;5120391;27;88490;-48
2021/06/05 08:44:15;;;;;;;;;;;15.70;78.20;;;;;;5121305;27;87155;-47
2021/06/05 08:46:40;;;;;;;;;;;15.80;78.20;;;;;;5124116;27;87122;-47
2021/06/05 08:49:10;;;;;;;;;;;15.80;78.30;;;;;;5124915;27;89162;-48
2021/06/05 08:51:54;;;;;;;;;;;15.80;78.30;;;;;;5125590;27;87162;-47
2021/06/05 08:54:28;;;;;;;;;;;15.80;78.30;;;;;;5121537;27;88841;-47
2021/06/05 08:56:53;;;;;;;;;;;15.80;78.30;;;;;;5124841;27;89136;-47
2021/06/05 08:59:24;;;;;;;;;;;15.90;78.00;;;;;;5126921;27;88086;-48
2021/06/05 09:01:49;;;;;;;;;;;15.90;77.90;;;;;;5120977;27;88163;-48
2021/06/05 09:04:20;;;;;;;;;;;15.90;77.80;;;;;;5122430;27;87135;-48
2021/06/05 09:06:54;;;;;;;;;;;15.90;77.80;;;;;;5123138;27;87245;-47
2021/06/05 09:09:22;;;;;;;;;;;15.90;77.80;;;;;;5123203;27;88665;-47
2021/06/05 09:11:47;;;;;;;;;;;15.90;77.80;;;;;;5123684;27;87122;-47
2021/06/05 09:14:13;;;;;;;;;;;16.00;77.80;;;;;;5125346;27;88586;-48
2021/06/05 09:16:38;;;;;;;;;;;16.00;77.90;;;;;;5124761;27;88734;-48
2021/06/05 09:19:07;;;;;;;;;;;16.00;78.00;;;;;;5121771;27;87784;-48
2021/06/05 09:21:40;;;;;;;;;;;16.00;77.90;;;;;;5125753;27;88072;-47
2021/06/05 09:24:19;;;;;;;;;;;16.10;77.80;;;;;;5120562;27;87122;-47
2021/06/05 09:26:47;;;;;;;;;;;16.10;77.70;;;;;;5123896;27;88931;-48
2021/06/05 09:29:20;;;;;;;;;;;16.10;77.70;;;;;;5121750;27;89461;-47
2021/06/05 09:31:57;;;;;;;;;;;16.10;77.70;;;;;;5120709;27;87878;-47
2021/06/05 09:34:24;;;;;;;;;;;16.10;77.70;;;;;;5121835;27;89060;-47
2021/06/05 09:36:49;;;;;;;;;;;16.20;77.70;;;;;;5123997;27;89852;-48
2021/06/05 09:39:16;;;;;;;;;;;16.20;77.80;;;;;;5121785;27;86445;-47
2021/06/05 09:41:43;;;;;;;;;;;16.20;77.80;;;;;;5122790;27;87881;-48
2021/06/05 09:44:12;;;;;;;;;;;16.10;77.80;;;;;;5126768;27;89561;-47
2021/06/05 09:46:38;;;;;;;;;;;16.10;78.00;;;;;;5121367;27;88581;-48
2021/06/05 09:49:09;;;;;;;;;;;16.10;78.10;;;;;;5121717;27;89708;-47
2021/06/05 09:51:37;;;;;;;;;;;16.20;78.20;;;;;;5122356;27;87114;-48
2021/06/05 09:54:08;;;;;;;;;;;16.20;78.20;;;;;;5120771;27;87191;-47
2021/06/05 09:56:38;;;;;;;;;;;16.20;78.20;;;;;;5119883;27;87138;-47
2021/06/05 09:59:03;;;;;;;;;;;16.20;78.30;;;;;;5120493;27;87156;-47
2021/06/05 10:01:30;;;;;;;;;;;16.20;78.30;;;;;;5121429;27;87171;-47
2021/06/05 10:04:08;;;;;;;;;;;16.20;78.30;;;;;;5123860;27;87503;-47
2021/06/05 10:06:34;;;;;;;;;;;16.20;78.30;;;;;;5122540;27;87237;-47
2021/06/05 10:09:01;;;;;;;;;;;16.30;78.30;;;;;;5119929;27;89112;-47
2021/06/05 10:11:26;;;;;;;;;;;16.30;78.20;;;;;;5123326;27;89663;-47
2021/06/05 10:13:57;;;;;;;;;;;16.30;78.20;;;;;;5122496;27;88665;-47
2021/06/05 10:16:23;;;;;;;;;;;16.40;78.30;;;;;;5119591;27;89802;-48
2021/06/05 10:18:49;;;;;;;;;;;16.40;78.20;;;;;;5120169;27;87201;-47
2021/06/05 10:21:38;;;;;;;;;;;16.40;78.20;;;;;;5121721;27;87140;-48
2021/06/05 10:24:10;;;;;;;;;;;16.50;78.20;;;;;;5108340;27;88140;-47
2021/06/05 10:26:44;;;;;;;;;;;16.50;78.20;;;;;;5127151;27;87883;-47
2021/06/05 10:29:17;;;;;;;;;;;16.50;78.30;;;;;;5120888;27;87370;-47
2021/06/05 10:31:43;;;;;;;;;;;16.50;78.30;;;;;;5123621;27;87167;-48
2021/06/05 10:34:12;;;;;;;;;;;16.50;78.30;;;;;;5122515;27;87160;-47
2021/06/05 10:36:48;;;;;;;;;;;16.50;78.20;;;;;;5123302;27;88119;-51
2021/06/05 10:39:15;;;;;;;;;;;17.30;67.80;;;;;;5123089;27;87122;-51
2021/06/05 10:41:45;;;;;;;;;;;18.50;59.20;;;;;;5121496;27;88634;-48
2021/06/05 10:44:11;;;;;;;;;;;18.20;61.60;;;;;;5104197;27;87104;-49
2021/06/05 10:46:48;;;;;;;;;;;18.20;62.80;;;;;;5103543;27;87171;-48
2021/06/05 10:49:26;;;;;;;;;;;18.40;61.60;;;;;;5104283;27;88880;-49
2021/06/05 10:52:17;;;;;;;;;;;18.20;62.00;;;;;;5099622;27;87194;-54
2021/06/05 10:54:45;;;;;;;;;;;18.40;60.70;;;;;;5088453;27;88876;-50
2021/06/05 10:57:32;;;;;;;;;;;18.40;63.40;;;;;;5103132;27;88217;-48
2021/06/05 10:59:59;;;;;;;;;;;18.50;60.10;;;;;;5103117;27;88163;-56
2021/06/05 11:02:33;;;;;;;;;;;18.90;59.60;;;;;;5100702;27;89102;-58
2021/06/05 11:04:59;;;;;;;;;;;19.20;59.10;;;;;;5097484;27;89722;-57
2021/06/05 11:07:30;;;;;;;;;;;19.20;58.90;;;;;;5099078;27;87371;-50
2021/06/05 11:09:57;;;;;;;;;;;19.10;58.20;;;;;;5101726;27;88992;-50
2021/06/05 11:12:26;;;;;;;;;;;19.40;56.10;;;;;;5105155;27;89284;-58
2021/06/05 11:14:52;;;;;;;;;;;19.20;58.00;;;;;;5100218;27;87182;-56
2021/06/05 11:17:27;;;;;;;;;;;19.10;57.30;;;;;;5099077;27;89106;-57
2021/06/05 11:20:13;;;;;;;;;;;19.30;59.00;;;;;;5101687;27;86441;-58
2021/06/05 11:22:48;;;;;;;;;;;19.30;58.50;;;;;;5101109;27;89433;-58
2021/06/05 11:25:16;;;;;;;;;;;19.40;58.10;;;;;;5100003;27;89578;-58
2021/06/05 11:27:42;;;;;;;;;;;19.40;57.80;;;;;;5100696;27;88102;-54
2021/06/05 11:30:27;;;;;;;;;;;19.20;57.60;;;;;;5102513;27;87911;-59
2021/06/05 11:33:13;;;;;;;;;;;19.30;56.50;;;;;;5099250;27;88798;-58
2021/06/05 11:35:47;;;;;;;;;;;19.20;57.50;;;;;;5099799;27;87095;-58
2021/06/05 11:38:12;;;;;;;;;;;19.00;56.90;;;;;;5100319;27;88367;-58
2021/06/05 11:40:44;;;;;;;;;;;19.00;55.70;;;;;;5102157;27;87125;-58
2021/06/05 11:43:19;;;;;;;;;;;19.10;55.70;;;;;;5102036;27;88085;-58
2021/06/05 11:46:04;;;;;;;;;;;19.30;55.10;;;;;;5102003;27;87375;-58
2021/06/05 11:48:41;;;;;;;;;;;19.40;54.70;;;;;;5098398;27;87170;-59
2021/06/05 11:51:27;;;;;;;;;;;19.50;55.90;;;;;;5101516;27;87265;-60
2021/06/05 11:53:57;;;;;;;;;;;19.40;54.20;;;;;;5100311;27;90728;-60
2021/06/05 11:56:24;;;;;;;;;;;19.40;55.70;;;;;;5098895;27;88312;-60
2021/06/05 11:58:50;;;;;;;;;;;19.40;52.90;;;;;;5104068;27;88715;-61
2021/06/05 12:01:21;;;;;;;;;;;19.40;52.60;;;;;;5101691;27;87213;-61
2021/06/05 12:04:00;;;;;;;;;;;19.20;52.00;;;;;;5101296;27;87874;-60
2021/06/05 12:06:25;;;;;;;;;;;19.20;50.30;;;;;;5098293;27;88847;-60
2021/06/05 12:09:12;;;;;;;;;;;19.20;50.00;;;;;;5100113;27;87093;-60
2021/06/05 12:11:37;;;;;;;;;;;19.20;51.50;;;;;;5100709;27;88742;-60
2021/06/05 12:14:14;;;;;;;;;;;19.20;49.10;;;;;;5099438;27;88685;-60
2021/06/05 12:16:47;;;;;;;;;;;19.30;49.90;;;;;;5099720;27;87138;-59
2021/06/05 12:19:13;;;;;;;;;;;19.40;49.40;;;;;;5102445;27;88749;-60
2021/06/05 12:21:39;;;;;;;;;;;19.20;50.20;;;;;;5102051;27;87118;-59
2021/06/05 12:24:17;;;;;;;;;;;19.20;50.30;;;;;;5100860;27;88887;-60
2021/06/05 12:27:02;;;;;;;;;;;19.20;51.00;;;;;;5104948;27;89824;-59
2021/06/05 12:29:35;;;;;;;;;;;19.40;50.30;;;;;;5102205;27;88911;-59
2021/06/05 12:32:12;;;;;;;;;;;19.50;50.20;;;;;;5103251;27;89150;-59
2021/06/05 12:34:39;;;;;;;;;;;19.50;49.20;;;;;;5101457;27;87960;-59
2021/06/05 12:37:17;;;;;;;;;;;19.50;48.50;;;;;;5101084;27;87715;-57
2021/06/05 12:39:44;;;;;;;;;;;19.50;49.20;;;;;;5105160;27;88273;-58
2021/06/05 12:42:11;;;;;;;;;;;19.50;48.40;;;;;;5107521;27;89644;-58
2021/06/05 12:44:39;;;;;;;;;;;19.30;48.80;;;;;;5103870;27;88094;-58
2021/06/05 12:47:12;;;;;;;;;;;19.30;47.40;;;;;;5101850;27;89143;-58
2021/06/05 12:49:38;;;;;;;;;;;19.50;48.00;;;;;;5100629;27;88872;-58
2021/06/05 12:52:06;;;;;;;;;;;19.70;49.10;;;;;;5100465;27;87201;-58
2021/06/05 12:54:38;;;;;;;;;;;19.70;49.50;;;;;;5103935;27;87735;-58
2021/06/05 12:57:21;;;;;;;;;;;19.60;49.50;;;;;;5102725;27;87227;-58
2021/06/05 12:59:47;;;;;;;;;;;19.60;50.50;;;;;;5103345;27;88868;-61
2021/06/05 13:02:22;;;;;;;;;;;19.70;49.50;;;;;;5100708;27;87491;-57
2021/06/05 13:04:47;;;;;;;;;;;19.70;49.80;;;;;;5104786;27;87145;-60
2021/06/05 13:07:13;;;;;;;;;;;19.70;50.80;;;;;;5101936;27;88234;-58
2021/06/05 13:09:44;;;;;;;;;;;19.60;51.40;;;;;;5102273;27;88160;-58
2021/06/05 13:12:19;;;;;;;;;;;19.50;50.10;;;;;;5103934;27;89867;-58
2021/06/05 13:14:44;;;;;;;;;;;19.40;50.60;;;;;;5100258;27;88798;-56
2021/06/05 13:17:16;;;;;;;;;;;19.40;51.90;;;;;;5101061;27;87159;-55
2021/06/05 13:19:42;;;;;;;;;;;19.40;52.90;;;;;;5100138;27;87490;-57
2021/06/05 13:22:19;;;;;;;;;;;19.40;54.00;;;;;;5099319;27;88027;-54
2021/06/05 13:24:59;;;;;;;;;;;19.50;49.80;;;;;;5102311;27;88534;-49
2021/06/05 13:27:26;;;;;;;;;;;19.70;52.40;;;;;;5103332;27;87530;-58
2021/06/05 13:29:52;;;;;;;;;;;19.70;52.40;;;;;;5103193;27;88680;-51
2021/06/05 13:32:20;;;;;;;;;;;19.90;53.20;;;;;;5102433;27;88219;-50
2021/06/05 13:34:46;;;;;;;;;;;19.90;53.70;;;;;;5101720;27;88431;-54
2021/06/05 13:37:17;;;;;;;;;;;20.40;50.20;;;;;;5104099;27;87218;-56
2021/06/05 13:39:43;;;;;;;;;;;20.40;47.50;;;;;;5103913;27;88114;-58
2021/06/05 13:42:09;;;;;;;;;;;20.20;48.70;;;;;;5103986;27;88809;-58
2021/06/05 13:44:38;;;;;;;;;;;19.90;51.00;;;;;;5103167;27;87788;-58
2021/06/05 13:47:04;;;;;;;;;;;19.80;52.60;;;;;;5101422;27;89065;-59
2021/06/05 13:49:29;;;;;;;;;;;19.90;50.50;;;;;;5103178;27;88160;-50
2021/06/05 13:51:54;;;;;;;;;;;20.00;49.50;;;;;;5102232;27;87219;-57
2021/06/05 13:54:20;;;;;;;;;;;20.10;48.10;;;;;;5102151;27;88045;-54
2021/06/05 13:56:46;;;;;;;;;;;20.30;45.90;;;;;;5103148;27;87153;-51
2021/06/05 13:59:11;;;;;;;;;;;20.40;47.40;;;;;;5102308;27;88232;-59
2021/06/05 14:01:37;;;;;;;;;;;20.70;43.80;;;;;;5101328;27;87992;-55
2021/06/05 14:04:04;;;;;;;;;;;20.40;44.60;;;;;;5101010;27;87105;-49
2021/06/05 14:06:31;;;;;;;;;;;20.60;45.40;;;;;;5100540;27;87415;-51
2021/06/05 14:08:56;;;;;;;;;;;20.60;47.30;;;;;;5099171;27;87532;-54
2021/06/05 14:11:22;;;;;;;;;;;20.60;45.80;;;;;;5102008;27;87143;-46
2021/06/05 14:13:49;;;;;;;;;;;20.80;45.80;;;;;;5099557;27;88141;-58
2021/06/05 14:16:16;;;;;;;;;;;20.80;44.90;;;;;;5099962;27;86465;-51
2021/06/05 14:18:41;;;;;;;;;;;20.60;48.80;;;;;;5099176;27;88617;-60
2021/06/05 14:21:08;;;;;;;;;;;20.40;48.70;;;;;;5099816;27;88129;-57